Time;durP1;ratioP1;P1;durP2;ratioP2;P2;SDS_P1;SDS_P2;PMS_P1;PMS_P2;Temp;Humidity;BMP_temperature;BMP_pressure;BME280_temperature;BME280_humidity;BME280_pressure;Samples;Min_cycle;Max_cycle;Signal;HPM_P1;HPM_P2
2021/10/31 00:02:20;;;;;;;44.08;17.35;;;11.20;92.60;;;;;;6251773;28;20045;-85
2021/10/31 00:05:22;;;;;;;34.08;15.18;;;11.10;92.70;;;;;;6252151;28;20049;-85
2021/10/31 00:08:23;;;;;;;43.17;15.43;;;11.10;92.90;;;;;;6252347;28;20049;-85
2021/10/31 00:11:27;;;;;;;44.42;16.15;;;11.20;92.90;;;;;;6251512;28;20052;-85
2021/10/31 00:14:28;;;;;;;48.80;15.65;;;11.30;92.80;;;;;;6251758;28;20073;-84
2021/10/31 00:17:30;;;;;;;40.42;13.82;;;11.20;92.60;;;;;;6252172;28;20045;-85
2021/10/31 00:20:32;;;;;;;48.35;15.95;;;11.20;92.70;;;;;;6250831;28;20518;-85
2021/10/31 00:23:34;;;;;;;44.45;14.32;;;11.20;92.70;;;;;;6251388;28;20525;-84
2021/10/31 00:26:37;;;;;;;37.42;13.93;;;11.10;92.50;;;;;;6248157;28;20152;-88
2021/10/31 00:29:39;;;;;;;36.00;13.98;;;11.00;92.70;;;;;;6225932;28;20128;-87
2021/10/31 00:32:41;;;;;;;37.92;14.90;;;11.00;92.80;;;;;;6226598;28;20602;-85
2021/10/31 00:35:43;;;;;;;42.47;14.27;;;11.00;92.90;;;;;;6227752;28;20042;-87
2021/10/31 00:38:45;;;;;;;38.95;15.02;;;11.00;92.80;;;;;;6248318;28;20458;-87
2021/10/31 00:41:48;;;;;;;40.40;13.63;;;11.00;92.70;;;;;;6250677;28;20065;-87
2021/10/31 00:44:50;;;;;;;37.00;13.93;;;11.00;92.50;;;;;;6250953;28;20049;-86
2021/10/31 00:47:53;;;;;;;33.85;12.13;;;10.90;92.50;;;;;;6250516;28;20057;-86
2021/10/31 00:50:54;;;;;;;38.03;13.30;;;10.80;92.50;;;;;;6250472;28;20251;-86
2021/10/31 00:53:58;;;;;;;47.25;15.63;;;10.70;92.40;;;;;;6252693;28;20132;-88
2021/10/31 00:57:02;;;;;;;43.47;14.90;;;10.50;92.40;;;;;;6251093;28;20053;-86
2021/10/31 01:00:12;;;;;;;37.00;13.02;;;10.50;92.60;;;;;;6250448;28;20414;-86
2021/10/31 01:03:15;;;;;;;37.20;12.82;;;10.40;92.70;;;;;;6250701;28;20041;-86
2021/10/31 01:06:42;;;;;;;38.88;13.00;;;10.40;92.90;;;;;;6250393;28;20171;-86
2021/10/31 01:09:59;;;;;;;40.70;13.38;;;10.50;92.90;;;;;;6250636;28;20041;-87
2021/10/31 01:13:20;;;;;;;30.25;12.52;;;10.60;92.70;;;;;;6249979;28;20057;-85
2021/10/31 01:16:39;;;;;;;44.25;13.70;;;10.50;92.50;;;;;;6250467;28;20505;-86
2021/10/31 01:19:58;;;;;;;32.47;11.85;;;10.30;92.30;;;;;;6249817;28;20048;-86
2021/10/31 01:23:11;;;;;;;;;;;10.30;92.60;;;;;;6250705;28;20049;-86
2021/10/31 01:26:32;;;;;;;31.98;13.00;;;10.20;92.80;;;;;;6249886;28;19925;-86
2021/10/31 01:29:49;;;;;;;48.67;15.63;;;10.30;92.80;;;;;;6248846;28;20065;-87
2021/10/31 01:33:03;;;;;;;43.90;16.40;;;10.40;92.80;;;;;;6251092;28;20168;-86
2021/10/31 01:36:11;;;;;;;40.33;14.98;;;10.40;92.70;;;;;;6249335;28;20103;-86
2021/10/31 01:39:15;;;;;;;;;;;10.30;92.60;;;;;;6244327;28;20091;-87
2021/10/31 01:42:23;;;;;;;47.95;15.85;;;10.30;92.80;;;;;;6223523;28;20044;-86
2021/10/31 01:45:34;;;;;;;;;;;10.40;92.80;;;;;;6241126;28;20051;-87
2021/10/31 01:48:50;;;;;;;57.58;14.90;;;10.30;92.70;;;;;;6250087;28;19928;-86
2021/10/31 01:51:55;;;;;;;38.53;14.50;;;10.30;92.80;;;;;;6248774;28;20722;-85
2021/10/31 01:55:01;;;;;;;38.95;15.05;;;10.30;92.90;;;;;;6248943;28;20081;-86
2021/10/31 01:58:04;;;;;;;41.28;16.08;;;10.30;92.90;;;;;;6248463;28;20553;-85
2021/10/31 02:01:10;;;;;;;49.33;16.40;;;10.30;92.90;;;;;;6248336;28;20049;-86
2021/10/31 02:04:15;;;;;;;40.47;15.68;;;10.40;92.80;;;;;;6249100;28;20414;-85
2021/10/31 02:07:20;;;;;;;51.42;17.98;;;10.40;92.70;;;;;;6248793;28;20546;-85
2021/10/31 02:10:22;;;;;;;58.85;16.75;;;10.50;92.70;;;;;;6247495;28;20053;-86
2021/10/31 02:13:25;;;;;;;51.08;17.52;;;10.50;92.60;;;;;;6248396;28;20045;-85
2021/10/31 02:16:29;;;;;;;56.63;17.45;;;10.60;92.70;;;;;;6249099;28;20053;-86
2021/10/31 02:19:41;;;;;;;46.10;16.02;;;10.60;92.60;;;;;;6247803;28;20042;-86
2021/10/31 02:22:50;;;;;;;50.63;16.20;;;10.60;92.50;;;;;;6248362;28;20053;-86
2021/10/31 02:25:52;;;;;;;38.25;14.30;;;10.60;92.20;;;;;;6247842;28;20053;-85
2021/10/31 02:28:59;;;;;;;39.00;13.65;;;10.60;92.20;;;;;;6248516;28;20050;-86
2021/10/31 02:32:01;;;;;;;48.88;13.50;;;10.30;92.30;;;;;;6248675;28;20049;-86
2021/10/31 02:35:05;;;;;;;43.63;14.23;;;10.40;92.50;;;;;;6247654;28;20053;-86
2021/10/31 02:38:09;;;;;;;36.70;12.88;;;10.20;92.60;;;;;;6248439;28;20124;-86
2021/10/31 02:41:11;;;;;;;31.38;13.07;;;10.10;92.50;;;;;;6247011;28;20088;-87
2021/10/31 02:44:13;;;;;;;31.98;13.77;;;10.10;92.50;;;;;;6248367;28;20139;-86
2021/10/31 02:47:21;;;;;;;34.50;12.55;;;10.00;92.60;;;;;;6249337;28;20107;-87
2021/10/31 02:50:26;;;;;;;29.55;12.30;;;10.00;92.80;;;;;;6250481;28;20052;-86
2021/10/31 02:53:37;;;;;;;46.00;15.10;;;9.90;92.70;;;;;;6252177;28;20072;-87
2021/10/31 02:56:43;;;;;;;41.80;14.38;;;10.00;92.70;;;;;;6256179;28;20052;-87
2021/10/31 02:59:49;;;;;;;39.88;15.05;;;10.00;92.60;;;;;;6258880;28;20045;-86
2021/10/31 03:02:52;;;;;;;42.47;13.60;;;10.10;92.80;;;;;;6248077;28;20049;-86
2021/10/31 03:05:57;;;;;;;41.63;12.93;;;10.10;92.60;;;;;;6247128;28;20546;-87
2021/10/31 03:09:00;;;;;;;42.60;13.18;;;10.10;92.50;;;;;;6246874;28;20052;-86
2021/10/31 03:12:04;;;;;;;42.13;15.50;;;10.10;92.60;;;;;;6248581;28;20132;-86
2021/10/31 03:15:07;;;;;;;44.22;13.48;;;10.20;92.50;;;;;;6246951;28;20053;-86
2021/10/31 03:18:10;;;;;;;43.15;12.18;;;10.10;92.50;;;;;;6246940;28;20056;-87
2021/10/31 03:21:12;;;;;;;38.00;14.73;;;10.00;92.70;;;;;;6246862;28;20053;-86
2021/10/31 03:24:16;;;;;;;40.78;14.77;;;10.20;92.80;;;;;;6248019;28;20392;-86
2021/10/31 03:27:18;;;;;;;45.05;16.25;;;10.20;92.70;;;;;;6247285;28;20094;-87
2021/10/31 03:30:20;;;;;;;47.53;14.32;;;10.30;92.60;;;;;;6246009;28;20103;-86
2021/10/31 03:33:22;;;;;;;39.45;14.73;;;10.30;92.60;;;;;;6246889;28;20041;-86
2021/10/31 03:36:48;;;;;;;44.28;14.68;;;10.30;92.60;;;;;;6246913;28;20415;-85
2021/10/31 03:44:28;;;;;;;33.92;13.27;;;10.30;92.60;;;;;;6225590;28;20103;-86
2021/10/31 03:47:46;;;;;;;47.58;15.02;;;10.20;92.40;;;;;;6114902;29;20134;-86
2021/10/31 03:51:00;;;;;;;31.27;12.75;;;10.30;92.50;;;;;;6137932;29;20043;-86
2021/10/31 03:54:04;;;;;;;33.85;13.25;;;10.30;92.60;;;;;;6148315;28;20114;-87
2021/10/31 04:01:00;;;;;;;34.60;13.18;;;10.40;92.50;;;;;;6219193;28;20512;-86
2021/10/31 04:04:01;;;;;;;39.70;14.65;;;10.40;92.40;;;;;;6225320;28;20033;-86
2021/10/31 04:07:04;;;;;;;36.97;14.32;;;10.50;92.40;;;;;;6215348;28;20057;-86
2021/10/31 04:10:06;;;;;;;37.05;13.27;;;10.50;92.30;;;;;;6221506;28;20057;-86
2021/10/31 04:13:08;;;;;;;32.95;13.30;;;10.50;92.20;;;;;;6222559;28;20138;-87
2021/10/31 04:16:12;;;;;;;44.70;13.73;;;10.40;92.30;;;;;;6222447;28;20046;-87
2021/10/31 04:19:13;;;;;;;33.13;12.10;;;10.40;92.40;;;;;;6221497;28;20564;-88
2021/10/31 04:22:18;;;;;;;32.38;11.57;;;10.40;92.40;;;;;;6222768;28;20097;-87
2021/10/31 04:25:20;;;;;;;34.25;12.35;;;10.40;92.30;;;;;;6221962;28;20125;-87
2021/10/31 04:28:23;;;;;;;29.02;12.93;;;10.40;92.30;;;;;;6211776;28;20196;-87
2021/10/31 04:31:27;;;;;;;36.47;14.30;;;10.30;92.30;;;;;;6221548;28;20049;-86
2021/10/31 04:34:29;;;;;;;36.28;15.77;;;10.30;92.50;;;;;;6222937;28;20060;-87
2021/10/31 04:37:33;;;;;;;40.88;18.95;;;10.40;92.60;;;;;;6226272;28;20046;-86
2021/10/31 04:40:36;;;;;;;36.45;16.20;;;10.40;92.60;;;;;;6230678;28;20050;-88
2021/10/31 04:43:39;;;;;;;42.97;17.42;;;10.50;92.50;;;;;;6243968;28;20156;-87
2021/10/31 04:46:45;;;;;;;44.28;17.77;;;10.60;92.50;;;;;;6251023;28;20049;-88
2021/10/31 04:49:59;;;;;;;40.20;15.93;;;10.60;92.40;;;;;;6248439;28;20133;-84
2021/10/31 04:53:08;;;;;;;42.08;16.83;;;10.50;92.40;;;;;;6242562;28;20491;-86
2021/10/31 04:56:09;;;;;;;34.35;15.00;;;10.60;92.50;;;;;;6252774;28;20159;-85
2021/10/31 04:59:11;;;;;;;39.03;14.80;;;10.70;92.50;;;;;;6250110;28;20041;-85
2021/10/31 05:02:17;;;;;;;35.35;14.25;;;10.60;92.50;;;;;;6250738;28;20046;-86
2021/10/31 05:05:19;;;;;;;36.97;14.10;;;10.50;92.60;;;;;;6250077;28;20048;-85
2021/10/31 05:08:20;;;;;;;38.03;14.48;;;10.60;92.90;;;;;;6249592;28;20138;-87
2021/10/31 05:11:22;;;;;;;37.83;13.93;;;10.70;92.80;;;;;;6249218;28;20041;-86
2021/10/31 05:14:24;;;;;;;35.97;14.55;;;10.70;92.60;;;;;;6249710;28;20128;-85
2021/10/31 05:17:27;;;;;;;40.33;15.20;;;10.80;92.70;;;;;;6249176;28;20117;-86
2021/10/31 05:20:32;;;;;;;40.80;14.38;;;10.90;92.60;;;;;;6241633;28;20053;-86
2021/10/31 05:23:34;;;;;;;36.67;14.70;;;10.90;92.60;;;;;;6223965;28;20654;-87
2021/10/31 05:26:36;;;;;;;36.67;15.10;;;10.90;92.50;;;;;;6224347;28;20414;-86
2021/10/31 05:29:38;;;;;;;41.42;16.20;;;11.00;92.50;;;;;;6224480;28;20144;-88
2021/10/31 05:32:43;;;;;;;37.08;14.88;;;11.10;92.40;;;;;;6225259;28;20050;-86
2021/10/31 05:35:45;;;;;;;45.22;15.05;;;11.10;92.40;;;;;;6224008;28;20050;-87
2021/10/31 05:38:47;;;;;;;28.13;12.77;;;11.10;92.50;;;;;;6224907;28;20124;-86
2021/10/31 05:42:00;;;;;;;42.67;15.27;;;11.10;92.50;;;;;;6230715;28;20431;-88
2021/10/31 05:45:02;;;;;;;31.60;13.63;;;11.10;92.60;;;;;;6250573;28;20053;-87
2021/10/31 05:48:06;;;;;;;37.38;15.68;;;11.30;92.50;;;;;;6251116;28;20049;-88
2021/10/31 05:51:08;;;;;;;35.10;14.25;;;11.40;92.40;;;;;;6234193;28;20046;-87
2021/10/31 05:54:10;;;;;;;31.67;13.55;;;11.40;92.20;;;;;;6223950;28;20069;-88
2021/10/31 05:57:12;;;;;;;31.02;13.73;;;11.40;92.30;;;;;;6224251;28;20057;-87
2021/10/31 06:00:17;;;;;;;37.33;13.68;;;11.40;92.30;;;;;;6224681;28;20050;-87
2021/10/31 06:03:20;;;;;;;34.35;12.95;;;11.40;92.20;;;;;;6224210;28;20462;-86
2021/10/31 06:06:23;;;;;;;29.92;12.63;;;11.30;92.20;;;;;;6226247;28;20049;-86
2021/10/31 06:09:25;;;;;;;32.60;12.40;;;11.30;92.30;;;;;;6224643;28;20089;-87
2021/10/31 06:12:27;;;;;;;27.88;11.15;;;11.30;92.30;;;;;;6225691;28;20050;-87
2021/10/31 06:15:29;;;;;;;35.88;13.45;;;11.30;92.30;;;;;;6231495;28;20499;-87
2021/10/31 06:18:34;;;;;;;30.77;12.43;;;11.20;92.30;;;;;;6241961;28;20065;-87
2021/10/31 06:21:36;;;;;;;29.05;12.18;;;11.10;92.30;;;;;;6241235;28;20175;-86
2021/10/31 06:24:38;;;;;;;29.27;12.25;;;11.10;92.30;;;;;;6249492;28;20056;-87
2021/10/31 06:27:40;;;;;;;30.58;12.27;;;11.10;92.30;;;;;;6249044;28;20050;-89
2021/10/31 06:30:41;;;;;;;24.52;10.90;;;11.00;92.30;;;;;;6247994;28;20139;-88
2021/10/31 06:33:45;;;;;;;29.70;12.23;;;11.00;92.30;;;;;;6248901;28;20050;-89
2021/10/31 06:36:47;;;;;;;30.98;14.07;;;11.00;92.20;;;;;;6249012;28;20049;-90
2021/10/31 06:39:49;;;;;;;39.75;13.98;;;10.80;92.30;;;;;;6248744;28;20045;-89
2021/10/31 06:42:51;;;;;;;25.40;10.63;;;10.70;92.80;;;;;;6253710;28;20512;-90
2021/10/31 06:45:55;;;;;;;35.28;12.75;;;10.70;92.80;;;;;;6248805;28;20414;-89
2021/10/31 06:48:59;;;;;;;31.20;12.48;;;10.60;92.70;;;;;;6247662;28;20076;-88
2021/10/31 06:52:00;;;;;;;26.63;11.10;;;10.70;92.60;;;;;;6240117;28;20049;-87
2021/10/31 06:55:04;;;;;;;27.58;10.70;;;10.80;92.60;;;;;;6247794;28;20054;-88
2021/10/31 06:58:06;;;;;;;34.10;12.60;;;10.80;92.50;;;;;;6247907;28;20045;-88
2021/10/31 07:01:07;;;;;;;31.85;12.73;;;10.80;92.30;;;;;;6247103;28;20415;-88
2021/10/31 07:04:11;;;;;;;27.77;11.57;;;10.90;92.50;;;;;;6248349;28;20077;-87
2021/10/31 07:07:16;;;;;;;28.67;11.90;;;10.90;92.40;;;;;;6246828;28;20136;-89
2021/10/31 07:10:30;;;;;;;27.00;11.45;;;11.00;92.40;;;;;;6245581;28;20498;-89
2021/10/31 07:13:34;;;;;;;29.60;11.27;;;10.90;92.30;;;;;;6247273;28;20041;-89
2021/10/31 07:16:36;;;;;;;28.75;11.80;;;10.90;92.60;;;;;;6248674;28;20053;-86
2021/10/31 07:19:39;;;;;;;27.52;11.80;;;11.00;92.70;;;;;;6239195;28;20057;-86
2021/10/31 07:22:41;;;;;;;25.80;11.52;;;11.10;92.60;;;;;;6229458;28;20046;-87
2021/10/31 07:25:43;;;;;;;28.65;11.20;;;11.30;92.50;;;;;;6222954;28;20503;-85
2021/10/31 07:28:45;;;;;;;26.35;12.38;;;11.50;92.40;;;;;;6222868;28;20061;-86
2021/10/31 07:31:49;;;;;;;28.08;11.77;;;11.80;92.40;;;;;;6222094;28;20089;-87
2021/10/31 07:34:52;;;;;;;28.60;12.93;;;12.00;92.30;;;;;;6222517;28;20488;-87
2021/10/31 07:37:55;;;;;;;33.10;12.95;;;12.20;92.10;;;;;;6222247;28;20522;-86
2021/10/31 07:40:56;;;;;;;25.52;12.65;;;12.50;92.00;;;;;;6222112;28;20049;-86
2021/10/31 07:43:58;;;;;;;22.55;11.68;;;12.70;91.90;;;;;;6229901;28;20136;-87
2021/10/31 07:47:00;;;;;;;25.25;14.23;;;12.80;91.70;;;;;;6246468;28;20050;-87
2021/10/31 07:50:04;;;;;;;19.52;11.13;;;13.00;91.80;;;;;;6237901;28;20041;-90
2021/10/31 07:53:13;;;;;;;19.25;10.50;;;13.00;91.80;;;;;;6224689;28;20107;-88
2021/10/31 07:56:17;;;;;;;21.15;8.45;;;13.20;91.70;;;;;;6222414;28;20077;-89
2021/10/31 07:59:19;;;;;;;17.80;9.80;;;13.20;91.50;;;;;;6221657;28;20050;-88
2021/10/31 08:02:21;;;;;;;15.38;9.63;;;13.30;91.40;;;;;;6221857;28;20080;-87
2021/10/31 08:05:26;;;;;;;12.10;7.97;;;13.30;91.50;;;;;;6220471;28;20053;-87
2021/10/31 08:08:28;;;;;;;13.30;7.22;;;13.30;91.40;;;;;;6222517;28;20211;-88
2021/10/31 08:11:30;;;;;;;12.05;7.28;;;13.40;91.50;;;;;;6226237;28;20534;-88
2021/10/31 08:14:32;;;;;;;11.20;6.80;;;13.50;91.30;;;;;;6226347;28;20125;-90
2021/10/31 08:17:43;;;;;;;12.35;6.82;;;13.60;91.60;;;;;;6226459;28;20133;-87
2021/10/31 08:20:47;;;;;;;11.52;5.75;;;13.80;91.30;;;;;;6239777;28;20046;-89
2021/10/31 08:23:49;;;;;;;8.77;5.70;;;14.00;91.00;;;;;;6226027;28;20050;-89
2021/10/31 08:26:50;;;;;;;9.50;6.05;;;14.10;90.80;;;;;;6242676;23;20784;-87
2021/10/31 08:29:52;;;;;;;9.52;6.05;;;14.10;91.00;;;;;;6250552;28;20136;-88
2021/10/31 08:32:54;;;;;;;18.45;11.18;;;14.40;91.00;;;;;;6251107;28;20078;-90
2021/10/31 08:35:58;;;;;;;15.13;8.60;;;14.90;91.30;;;;;;6250099;28;20056;-88
2021/10/31 08:39:00;;;;;;;13.85;10.35;;;15.60;90.70;;;;;;6250556;28;20072;-91
2021/10/31 08:42:03;;;;;;;9.75;8.23;;;16.20;90.30;;;;;;6241227;28;20085;-87
2021/10/31 08:45:06;;;;;;;9.18;6.97;;;16.90;89.90;;;;;;6249927;28;20139;-89
2021/10/31 08:48:08;;;;;;;7.40;6.68;;;17.40;88.70;;;;;;6250963;28;20041;-90
2021/10/31 08:51:17;;;;;;;5.85;5.07;;;17.90;87.20;;;;;;6243913;28;20189;-88
2021/10/31 08:54:19;;;;;;;4.10;3.40;;;18.40;85.00;;;;;;6225640;28;20077;-87
2021/10/31 08:57:21;;;;;;;10.82;4.70;;;18.80;83.20;;;;;;6225384;28;20046;-88
2021/10/31 09:00:23;;;;;;;3.28;2.55;;;18.80;81.60;;;;;;6226513;28;20096;-86
2021/10/31 09:03:25;;;;;;;4.57;2.65;;;18.70;81.80;;;;;;6223340;28;20083;-86
2021/10/31 09:06:30;;;;;;;4.50;3.35;;;18.80;81.30;;;;;;6224000;28;20130;-88
2021/10/31 09:09:31;;;;;;;9.30;5.10;;;18.80;81.00;;;;;;6225576;28;20052;-88
2021/10/31 09:12:33;;;;;;;10.55;2.85;;;18.90;80.70;;;;;;6226013;28;20136;-88
2021/10/31 09:15:37;;;;;;;5.90;3.28;;;18.90;80.40;;;;;;6226023;28;20048;-88
2021/10/31 09:18:39;;;;;;;4.55;2.50;;;18.80;80.60;;;;;;6236590;28;20099;-91
2021/10/31 09:21:46;;;;;;;4.55;3.15;;;18.80;81.00;;;;;;6241322;28;20432;-89
2021/10/31 09:24:51;;;;;;;5.63;3.25;;;18.70;81.00;;;;;;6227317;28;20046;-89
2021/10/31 09:27:54;;;;;;;6.25;3.22;;;18.70;80.60;;;;;;6226309;28;20046;-90
2021/10/31 09:30:57;;;;;;;4.55;3.05;;;18.70;81.00;;;;;;6228729;28;20141;-88
2021/10/31 09:33:59;;;;;;;4.95;2.67;;;18.90;80.90;;;;;;6227806;28;20056;-87
2021/10/31 09:37:39;;;;;;;5.70;2.95;;;19.10;79.30;;;;;;6232600;28;20411;-89
2021/10/31 09:44:25;;;;;;;7.82;2.75;;;19.50;78.20;;;;;;6210971;28;20451;-90
2021/10/31 09:47:32;;;;;;;8.63;2.65;;;19.70;76.70;;;;;;6242968;28;20053;-87
2021/10/31 09:50:39;;;;;;;4.33;2.50;;;20.00;76.70;;;;;;6232149;28;20053;-88
2021/10/31 09:53:44;;;;;;;2.30;1.77;;;20.40;76.00;;;;;;6225162;28;20046;-89
2021/10/31 09:56:47;;;;;;;4.10;2.20;;;20.30;74.90;;;;;;6224075;28;20574;-88
2021/10/31 09:59:53;;;;;;;5.18;2.22;;;20.30;75.40;;;;;;6223673;28;20049;-87
2021/10/31 10:03:06;;;;;;;5.28;2.25;;;20.30;75.50;;;;;;6223401;28;20125;-88
2021/10/31 10:06:49;;;;;;;3.40;2.22;;;20.40;75.80;;;;;;6224098;28;20443;-91
2021/10/31 10:09:53;;;;;;;2.85;2.20;;;20.60;75.80;;;;;;6223191;28;20699;-87
2021/10/31 10:13:31;;;;;;;4.95;2.42;;;20.70;75.40;;;;;;6223805;28;20049;-89
2021/10/31 10:16:33;;;;;;;9.43;2.42;;;20.80;75.50;;;;;;6223966;28;20052;-90
2021/10/31 10:19:45;;;;;;;5.45;2.05;;;20.80;75.00;;;;;;6223547;28;20046;-90
2021/10/31 10:22:48;;;;;;;4.13;2.67;;;20.90;75.00;;;;;;6242310;28;20057;-90
2021/10/31 10:25:51;;;;;;;4.40;1.95;;;20.90;73.90;;;;;;6247554;28;20041;-88
2021/10/31 10:29:10;;;;;;;3.28;2.25;;;20.80;73.40;;;;;;6248222;28;20407;-89
2021/10/31 10:32:14;;;;;;;8.35;2.80;;;20.70;73.50;;;;;;6240255;28;20049;-87
2021/10/31 10:35:18;;;;;;;6.75;4.00;;;20.60;74.50;;;;;;6222984;28;20192;-87
2021/10/31 10:38:19;;;;;;;3.08;2.03;;;20.70;75.20;;;;;;6222768;28;20050;-88
2021/10/31 10:41:40;;;;;;;2.70;1.75;;;20.80;75.60;;;;;;6222509;28;20042;-89
2021/10/31 10:44:43;;;;;;;5.50;1.30;;;21.10;74.60;;;;;;6236479;28;20071;-90
2021/10/31 10:47:47;;;;;;;7.10;1.63;;;21.20;74.60;;;;;;6234178;28;20136;-89
2021/10/31 10:50:49;;;;;;;5.05;1.70;;;21.10;74.00;;;;;;6226642;28;20060;-89
2021/10/31 10:54:11;;;;;;;2.20;1.20;;;21.00;73.90;;;;;;6241122;28;20045;-88
2021/10/31 10:57:14;;;;;;;2.47;1.55;;;20.50;74.30;;;;;;6233648;28;20057;-89
2021/10/31 11:00:20;;;;;;;2.10;1.55;;;20.40;74.90;;;;;;6239655;28;20486;-89
2021/10/31 11:03:30;;;;;;;3.53;1.92;;;20.30;75.90;;;;;;6235593;28;20121;-89
2021/10/31 11:06:32;;;;;;;5.13;1.70;;;20.40;77.00;;;;;;6222288;28;20050;-90
2021/10/31 11:09:38;;;;;;;2.90;1.45;;;20.70;77.00;;;;;;6221834;28;20056;-87
2021/10/31 11:12:43;;;;;;;8.10;3.90;;;21.10;75.50;;;;;;6222457;28;20181;-90
2021/10/31 11:15:46;;;;;;;10.68;5.82;;;21.40;75.00;;;;;;6222409;28;20492;-87
2021/10/31 11:18:48;;;;;;;2.75;1.75;;;21.50;74.30;;;;;;6232558;28;20134;-88
2021/10/31 11:21:55;;;;;;;30.85;14.65;;;21.60;74.10;;;;;;6238704;28;20115;-86
2021/10/31 11:24:59;;;;;;;4.75;2.83;;;21.70;74.10;;;;;;6246833;28;20060;-85
2021/10/31 11:28:03;;;;;;;3.05;1.98;;;21.90;73.60;;;;;;6247183;28;20055;-84
2021/10/31 11:31:44;;;;;;;2.30;1.33;;;21.90;73.20;;;;;;6246056;28;20128;-88
2021/10/31 11:46:16;;;;;;;4.57;1.03;;;22.70;69.20;;;;;;6200021;28;20046;-88
2021/10/31 11:49:20;;;;;;;4.43;0.82;;;22.50;69.20;;;;;;6207755;28;20522;-87
2021/10/31 11:52:50;;;;;;;2.85;1.25;;;22.40;70.80;;;;;;6236173;28;20061;-86
2021/10/31 11:55:55;;;;;;;2.08;1.17;;;22.60;72.00;;;;;;6226638;28;20100;-88
2021/10/31 11:59:02;;;;;;;10.98;1.15;;;23.00;71.50;;;;;;6226787;28;20049;-89
2021/10/31 12:02:06;;;;;;;5.18;1.50;;;23.40;69.80;;;;;;6227228;28;20151;-89
2021/10/31 12:05:36;;;;;;;2.03;1.10;;;24.10;68.60;;;;;;6227260;28;20046;-86
2021/10/31 12:08:48;;;;;;;4.22;1.58;;;24.80;67.00;;;;;;6226849;28;20056;-88
2021/10/31 12:12:14;;;;;;;1.15;0.80;;;25.40;65.30;;;;;;6226298;28;20042;-87
2021/10/31 12:15:52;;;;;;;5.97;1.17;;;25.80;63.30;;;;;;6232179;28;20060;-88
2021/10/31 12:18:56;;;;;;;4.25;2.70;;;26.10;62.00;;;;;;6225633;28;20046;-88
2021/10/31 12:22:07;;;;;;;3.20;2.20;;;26.40;61.50;;;;;;6234399;28;20042;-88
2021/10/31 12:25:11;;;;;;;2.58;1.95;;;26.80;60.70;;;;;;6226067;28;20052;-90
2021/10/31 12:28:38;;;;;;;2.00;1.33;;;27.30;59.40;;;;;;6226326;28;20058;-89
2021/10/31 12:31:51;;;;;;;2.80;0.95;;;27.60;58.50;;;;;;6226332;28;20523;-88
2021/10/31 12:34:54;;;;;;;3.90;1.15;;;27.70;57.60;;;;;;6225601;28;20061;-89
2021/10/31 12:38:31;;;;;;;3.28;1.48;;;27.80;56.70;;;;;;6226235;28;20046;-88
2021/10/31 12:41:35;;;;;;;2.33;1.38;;;27.80;55.60;;;;;;6226303;28;20046;-88
2021/10/31 12:44:37;;;;;;;8.20;1.05;;;27.50;55.80;;;;;;6227127;28;20157;-86
2021/10/31 12:47:42;;;;;;;4.55;1.17;;;27.30;55.10;;;;;;6226748;28;20046;-87
2021/10/31 12:50:48;;;;;;;1.95;1.20;;;27.10;55.30;;;;;;6244453;28;20049;-88
2021/10/31 12:53:54;;;;;;;4.05;1.65;;;27.00;55.60;;;;;;6250601;28;20045;-87
2021/10/31 12:56:56;;;;;;;1.20;0.90;;;26.80;55.40;;;;;;6250487;28;20423;-87
2021/10/31 13:00:05;;;;;;;2.78;1.40;;;26.60;55.30;;;;;;6251982;28;20034;-89
2021/10/31 13:03:08;;;;;;;2.58;1.20;;;26.30;56.10;;;;;;6252368;28;20115;-88
2021/10/31 13:06:09;;;;;;;2.55;1.10;;;26.00;57.10;;;;;;6265619;28;20580;-86
2021/10/31 13:09:12;;;;;;;1.42;1.08;;;25.80;58.10;;;;;;6263991;28;20113;-86
2021/10/31 13:12:26;;;;;;;3.85;1.02;;;25.50;58.20;;;;;;6268817;28;20080;-87
2021/10/31 13:15:31;;;;;;;1.83;1.40;;;25.20;59.00;;;;;;6266937;28;20079;-85
2021/10/31 13:18:34;;;;;;;2.33;0.90;;;25.00;59.50;;;;;;6265569;28;20059;-83
2021/10/31 13:21:38;;;;;;;2.08;1.08;;;24.80;60.20;;;;;;6245986;28;20042;-88
2021/10/31 13:24:48;;;;;;;1.70;0.90;;;24.60;60.70;;;;;;6252952;28;20064;-84
2021/10/31 13:27:50;;;;;;;2.58;1.10;;;24.40;61.10;;;;;;6250776;28;20056;-87
2021/10/31 13:30:59;;;;;;;1.98;0.93;;;24.30;61.50;;;;;;6251346;28;20042;-86
2021/10/31 13:34:06;;;;;;;1.88;1.13;;;24.20;61.90;;;;;;6249654;28;20088;-86
2021/10/31 13:37:08;;;;;;;;;;;24.10;62.30;;;;;;6249846;28;20056;-87
2021/10/31 13:40:14;;;;;;;7.55;2.75;;;24.00;63.90;;;;;;6250261;28;19921;-86
2021/10/31 13:43:16;;;;;;;1.90;0.82;;;23.80;63.20;;;;;;6250568;28;20053;-86
2021/10/31 13:46:21;;;;;;;1.98;1.05;;;23.60;63.80;;;;;;6250440;28;20083;-85
2021/10/31 13:49:24;;;;;;;4.45;1.27;;;23.50;63.70;;;;;;6247534;28;20125;-86
2021/10/31 13:52:27;;;;;;;2.45;1.15;;;23.50;65.00;;;;;;6233375;28;20127;-86
2021/10/31 13:55:33;;;;;;;1.08;0.77;;;23.40;65.20;;;;;;6224687;28;20052;-85
2021/10/31 13:58:35;;;;;;;3.10;1.05;;;23.30;64.60;;;;;;6224007;28;20054;-86
2021/10/31 14:01:39;;;;;;;14.10;6.97;;;23.40;65.00;;;;;;6224571;28;20041;-86
2021/10/31 14:04:41;;;;;;;9.73;5.63;;;23.30;65.00;;;;;;6225425;28;20050;-85
2021/10/31 14:07:45;;;;;;;21.58;7.40;;;23.10;65.10;;;;;;6222973;28;20140;-86
2021/10/31 14:10:49;;;;;;;14.57;5.22;;;23.00;65.60;;;;;;6223824;28;20210;-86
2021/10/31 14:13:51;;;;;;;5.13;2.05;;;22.90;65.60;;;;;;6224247;28;20042;-86
2021/10/31 14:16:53;;;;;;;7.75;2.25;;;22.80;66.10;;;;;;6224519;28;20189;-85
2021/10/31 14:19:56;;;;;;;26.58;5.43;;;22.70;66.70;;;;;;6239192;28;20136;-86
2021/10/31 14:22:58;;;;;;;3.25;1.60;;;22.40;67.20;;;;;;6245334;28;20658;-85
2021/10/31 14:26:03;;;;;;;12.52;7.13;;;22.40;67.60;;;;;;6248506;28;20045;-84
2021/10/31 14:29:05;;;;;;;17.42;10.98;;;22.20;67.90;;;;;;6248039;28;20049;-85
2021/10/31 14:32:07;;;;;;;10.68;5.20;;;22.10;68.40;;;;;;6247904;28;20046;-85
2021/10/31 14:35:09;;;;;;;46.28;23.77;;;22.00;68.90;;;;;;6247589;28;20093;-84
2021/10/31 14:38:22;;;;;;;18.67;10.50;;;21.90;69.50;;;;;;6248143;28;20053;-85
2021/10/31 14:41:31;;;;;;;35.78;20.20;;;21.70;70.00;;;;;;6248641;28;20037;-85
2021/10/31 14:44:39;;;;;;;24.80;12.63;;;21.50;70.40;;;;;;6248092;28;20203;-84
2021/10/31 14:47:42;;;;;;;7.55;4.85;;;21.30;71.00;;;;;;6247785;28;20099;-88
2021/10/31 14:50:44;;;;;;;13.13;6.68;;;21.20;71.60;;;;;;6235942;28;20050;-85
2021/10/31 14:54:04;;;;;;;6.47;3.60;;;21.10;72.00;;;;;;6248266;28;20426;-86
2021/10/31 14:57:11;;;;;;;16.85;11.15;;;20.90;72.80;;;;;;6247948;28;20072;-86
2021/10/31 15:00:15;;;;;;;4.95;2.88;;;20.70;74.10;;;;;;6248861;28;20050;-87
2021/10/31 15:03:19;;;;;;;5.15;1.73;;;20.60;75.00;;;;;;6248945;28;20046;-82
2021/10/31 15:06:22;;;;;;;2.28;1.70;;;20.50;75.50;;;;;;6247368;28;20092;-83
2021/10/31 15:09:25;;;;;;;3.55;2.17;;;20.60;75.90;;;;;;6246898;28;20056;-83
2021/10/31 15:12:30;;;;;;;3.70;1.55;;;20.70;76.00;;;;;;6248243;28;20048;-83
2021/10/31 15:15:32;;;;;;;8.75;2.15;;;20.70;76.10;;;;;;6246869;28;20183;-82
2021/10/31 15:18:34;;;;;;;7.93;2.05;;;20.70;76.20;;;;;;6246737;28;20061;-82
2021/10/31 15:21:39;;;;;;;3.13;1.80;;;20.60;76.50;;;;;;6239213;28;20438;-82
2021/10/31 15:24:43;;;;;;;2.95;1.40;;;20.40;77.00;;;;;;6247647;28;20049;-82
2021/10/31 15:27:46;;;;;;;2.85;1.60;;;20.10;77.70;;;;;;6247321;28;20049;-83
2021/10/31 15:30:49;;;;;;;6.00;2.20;;;19.80;78.50;;;;;;6247234;28;20045;-82
2021/10/31 15:33:51;;;;;;;2.60;1.40;;;19.70;79.70;;;;;;6247597;28;20053;-83
2021/10/31 15:36:53;;;;;;;2.28;1.35;;;19.50;79.90;;;;;;6248080;28;20525;-83
2021/10/31 15:39:55;;;;;;;4.22;2.25;;;19.20;80.70;;;;;;6247037;28;20052;-82
2021/10/31 15:42:58;;;;;;;5.38;1.92;;;19.00;81.10;;;;;;6247712;28;20046;-82
2021/10/31 15:46:00;;;;;;;5.72;1.77;;;18.80;81.60;;;;;;6247365;28;20115;-82
2021/10/31 15:49:03;;;;;;;5.50;1.88;;;18.70;81.80;;;;;;6247868;28;20099;-83
2021/10/31 15:52:05;;;;;;;4.18;1.55;;;18.50;82.40;;;;;;6231642;28;20558;-82
2021/10/31 15:55:08;;;;;;;4.22;1.77;;;18.30;82.70;;;;;;6222545;28;20088;-82
2021/10/31 15:58:13;;;;;;;6.43;2.05;;;18.20;83.00;;;;;;6223152;28;20050;-83
2021/10/31 16:01:16;;;;;;;2.40;1.30;;;18.10;83.40;;;;;;6222852;28;20083;-82
2021/10/31 16:04:18;;;;;;;2.78;2.17;;;17.90;83.60;;;;;;6223124;28;20056;-82
2021/10/31 16:07:20;;;;;;;3.97;1.80;;;17.70;83.80;;;;;;6223425;28;20108;-82
2021/10/31 16:10:22;;;;;;;8.95;2.33;;;17.60;84.10;;;;;;6222124;28;20052;-82
2021/10/31 16:13:26;;;;;;;6.07;1.77;;;17.30;84.50;;;;;;6223320;28;20046;-85
2021/10/31 16:16:27;;;;;;;7.65;1.90;;;17.30;85.10;;;;;;6222924;28;20132;-86
2021/10/31 16:19:29;;;;;;;7.70;2.40;;;17.30;85.40;;;;;;6237598;28;20045;-86